createdAt,value
2018-11-26T00:01:53.644Z,101245.59
2018-11-26T00:04:20.147Z,101240.81
2018-11-26T00:06:46.616Z,101247.25
2018-11-26T00:09:13.124Z,101253.47
2018-11-26T00:11:39.588Z,101247.79
2018-11-26T00:14:06.111Z,101255.36
2018-11-26T00:16:32.779Z,101253.77
2018-11-26T00:18:59.264Z,101260.53
2018-11-26T00:21:25.808Z,101274.59
2018-11-26T00:23:52.454Z,101265.94
2018-11-26T00:26:18.988Z,101270.78
2018-11-26T00:28:46.386Z,101262.45
2018-11-26T00:31:12.048Z,101268.38
2018-11-26T00:33:38.588Z,101262.72
2018-11-26T00:36:05.464Z,101270.30
2018-11-26T00:38:31.997Z,101272.19
2018-11-26T00:40:58.487Z,101257.05
2018-11-26T00:43:24.951Z,101260.86
2018-11-26T00:45:51.455Z,101259.50
2018-11-26T00:48:17.911Z,101258.97
2018-11-26T00:50:44.431Z,101252.74
2018-11-26T00:53:10.984Z,101254.63
2018-11-26T00:55:37.508Z,101260.86
2018-11-26T00:58:04.304Z,101251.69
2018-11-26T01:00:30.780Z,101250.39
2018-11-26T01:02:57.322Z,101247.39
2018-11-26T01:05:36.513Z,101252.80
2018-11-26T01:08:03.131Z,101246.34
2018-11-26T01:10:29.607Z,101250.39
2018-11-26T01:12:56.160Z,101249.05
2018-11-26T01:15:22.668Z,101244.41
2018-11-26T01:17:49.161Z,101246.06
2018-11-26T01:20:15.639Z,101245.55
2018-11-26T01:22:42.117Z,101245.83
2018-11-26T01:25:08.616Z,101243.91
2018-11-26T01:27:35.152Z,101247.17
2018-11-26T01:30:01.720Z,101249.31
2018-11-26T01:32:28.240Z,101247.17
2018-11-26T01:34:54.775Z,101245.55
2018-11-26T01:37:21.276Z,101248.26
2018-11-26T01:39:47.741Z,101246.66
2018-11-26T01:42:14.248Z,101242.61
2018-11-26T01:44:40.712Z,101235.84
2018-11-26T01:47:07.217Z,101243.96
2018-11-26T01:49:33.777Z,101244.50
2018-11-26T01:52:00.293Z,101241.55
2018-11-26T01:54:26.847Z,101245.85
2018-11-26T01:56:53.361Z,101236.69
2018-11-26T01:59:19.838Z,101236.14
2018-11-26T02:01:46.324Z,101233.98
2018-11-26T02:04:12.779Z,101235.84
2018-11-26T02:06:39.296Z,101236.95
2018-11-26T02:09:05.892Z,101229.92
2018-11-26T02:11:32.367Z,101230.50
2018-11-26T02:13:58.823Z,101226.47
2018-11-26T02:16:25.356Z,101219.95
2018-11-26T02:18:51.864Z,101231.88
2018-11-26T02:21:18.325Z,101226.47
2018-11-26T02:23:44.839Z,101226.47
2018-11-26T02:26:11.467Z,101227.81
2018-11-26T02:28:37.907Z,101223.25
2018-11-26T02:31:04.612Z,101225.95
2018-11-26T02:33:31.075Z,101225.95
2018-11-26T02:35:57.569Z,101227.30
2018-11-26T02:38:24.032Z,101226.77
2018-11-26T02:40:50.507Z,101223.83
2018-11-26T02:43:17.028Z,101227.30
2018-11-26T02:45:43.541Z,101221.90
2018-11-26T02:48:10.000Z,101224.36
2018-11-26T02:50:36.518Z,101220.06
2018-11-26T02:53:03.076Z,101223.01
2018-11-26T02:55:29.584Z,101224.36
2018-11-26T02:57:56.034Z,101220.84
2018-11-26T03:00:22.584Z,101221.41
2018-11-26T03:02:49.108Z,101218.98
2018-11-26T03:05:27.794Z,101220.63
2018-11-26T03:07:54.292Z,101224.98
2018-11-26T03:10:21.016Z,101217.98
2018-11-26T03:12:47.548Z,101222.04
2018-11-26T03:15:14.061Z,101225.04
2018-11-26T03:17:40.629Z,101225.55
2018-11-26T03:20:08.187Z,101228.55
2018-11-26T03:22:34.682Z,101216.93
2018-11-26T03:25:01.247Z,101209.90
2018-11-26T03:27:27.744Z,101216.12
2018-11-26T03:29:54.208Z,101212.36
2018-11-26T03:32:20.719Z,101213.71
2018-11-26T03:34:47.164Z,101209.14
2018-11-26T03:37:13.680Z,101209.42
2018-11-26T03:39:40.128Z,101208.36
2018-11-26T03:42:06.664Z,101208.66
2018-11-26T03:44:33.212Z,101208.09
2018-11-26T03:46:59.724Z,101222.72
2018-11-26T03:49:26.203Z,101223.25
2018-11-26T03:51:52.688Z,101222.47
2018-11-26T03:54:19.223Z,101221.66
2018-11-26T03:56:45.696Z,101236.83
2018-11-26T03:59:12.194Z,101233.31
2018-11-26T04:01:38.649Z,101242.23
2018-11-26T04:05:34.835Z,101242.77
2018-11-26T04:08:01.296Z,101247.42
2018-11-26T04:10:27.747Z,101249.30
2018-11-26T04:12:54.257Z,101251.23
2018-11-26T04:15:20.711Z,101245.82
2018-11-26T04:17:47.228Z,101246.91
2018-11-26T04:20:13.720Z,101247.20
2018-11-26T04:22:40.212Z,101249.66
2018-11-26T04:25:07.591Z,101246.09
2018-11-26T04:27:34.248Z,101242.09
2018-11-26T04:30:00.716Z,101248.23
2018-11-26T04:32:27.174Z,101244.94
2018-11-26T04:34:53.691Z,101244.88
2018-11-26T04:37:20.144Z,101245.39
2018-11-26T04:39:46.660Z,101254.78
2018-11-26T04:42:13.208Z,101239.85
2018-11-26T04:44:39.728Z,101241.70
2018-11-26T04:47:06.188Z,101246.50
2018-11-26T04:49:32.696Z,101237.28
2018-11-26T04:51:59.156Z,101237.80
2018-11-26T04:54:25.668Z,101239.39
2018-11-26T04:56:52.224Z,101242.61
2018-11-26T04:59:18.720Z,101245.02
2018-11-26T05:01:45.188Z,101244.47
2018-11-26T05:04:11.696Z,101246.06
2018-11-26T05:06:38.186Z,101244.72
2018-11-26T05:09:06.967Z,101251.75
2018-11-26T05:11:33.455Z,101251.75
2018-11-26T05:13:59.915Z,101247.93
2018-11-26T05:16:26.416Z,101255.50
2018-11-26T05:18:52.887Z,101259.56
2018-11-26T05:21:19.390Z,101261.70
2018-11-26T05:23:45.848Z,101256.05
2018-11-26T05:26:12.362Z,101250.94
2018-11-26T05:28:38.815Z,101254.18
2018-11-26T05:31:05.362Z,101252.59
2018-11-26T05:33:31.872Z,101255.02
2018-11-26T05:35:58.403Z,101255.83
2018-11-26T05:38:24.957Z,101269.34
2018-11-26T05:40:51.783Z,101266.41
2018-11-26T05:43:18.324Z,101264.23
2018-11-26T05:45:44.839Z,101269.95
2018-11-26T05:48:11.315Z,101265.65
2018-11-26T05:50:37.828Z,101267.78
2018-11-26T05:53:05.223Z,101273.19
2018-11-26T05:55:31.693Z,101269.43
2018-11-26T05:57:58.286Z,101275.65
2018-11-26T06:00:24.777Z,101279.19
2018-11-26T06:02:51.304Z,101278.14
2018-11-26T06:05:17.767Z,101287.06
2018-11-26T06:07:44.188Z,101294.89
2018-11-26T06:10:10.753Z,101295.41
2018-11-26T06:12:37.244Z,101293.00
2018-11-26T06:15:06.826Z,101295.20
2018-11-26T06:17:33.276Z,101294.41
2018-11-26T06:19:59.755Z,101295.77
2018-11-26T06:22:26.243Z,101294.95
2018-11-26T06:24:52.703Z,101292.79
2018-11-26T06:27:19.211Z,101292.27
2018-11-26T06:29:45.655Z,101296.33
2018-11-26T06:32:12.208Z,101294.20
2018-11-26T06:34:42.482Z,101300.38
2018-11-26T06:37:05.293Z,101302.03
2018-11-26T06:39:31.787Z,101293.68
2018-11-26T06:41:58.244Z,101300.98
2018-11-26T06:44:24.759Z,101299.62
2018-11-26T06:46:51.216Z,101298.57
2018-11-26T06:49:17.725Z,101293.70
2018-11-26T06:51:44.176Z,101301.03
2018-11-26T06:54:10.693Z,101298.03
2018-11-26T06:56:37.244Z,101291.81
2018-11-26T06:59:03.752Z,101300.73
2018-11-26T07:01:30.216Z,101298.03
2018-11-26T07:03:56.716Z,101299.38
2018-11-26T07:06:23.164Z,101301.81
2018-11-26T07:08:49.611Z,101303.73
2018-11-26T07:11:16.128Z,101301.03
2018-11-26T07:13:42.600Z,101306.67
2018-11-26T07:16:09.091Z,101309.38
2018-11-26T07:18:35.567Z,101313.97
2018-11-26T07:21:02.072Z,101308.33
2018-11-26T07:23:28.614Z,101309.92
2018-11-26T07:25:55.132Z,101307.22
2018-11-26T07:28:21.604Z,101305.08
2018-11-26T07:30:48.104Z,101306.97
2018-11-26T07:33:14.539Z,101302.38
2018-11-26T07:35:40.972Z,101301.81
2018-11-26T07:38:07.531Z,101304.27
2018-11-26T07:40:34.080Z,101310.48
2018-11-26T07:43:05.335Z,101310.73
2018-11-26T07:45:31.812Z,101306.95
2018-11-26T07:47:58.284Z,101305.87
2018-11-26T07:50:24.783Z,101309.14
2018-11-26T07:52:51.371Z,101308.56
2018-11-26T07:55:18.717Z,101308.56
2018-11-26T07:57:45.220Z,101311.27
2018-11-26T08:00:12.845Z,101304.81
2018-11-26T08:02:39.359Z,101312.38
2018-11-26T08:05:07.128Z,101312.63
2018-11-26T08:07:33.596Z,101318.03
2018-11-26T08:10:00.156Z,101315.60
2018-11-26T08:12:26.672Z,101318.55
2018-11-26T08:14:53.128Z,101325.06
2018-11-26T08:17:19.638Z,101325.30
2018-11-26T08:19:46.092Z,101322.36
2018-11-26T08:22:12.605Z,101328.58
2018-11-26T08:24:39.064Z,101327.48
2018-11-26T08:27:05.591Z,101328.36
2018-11-26T08:29:32.107Z,101339.88
2018-11-26T08:31:58.563Z,101341.80
2018-11-26T08:34:25.100Z,101339.93
2018-11-26T08:36:51.632Z,101340.98
2018-11-26T08:39:18.143Z,101345.85
2018-11-26T08:41:44.625Z,101340.17
2018-11-26T08:44:11.114Z,101345.58
2018-11-26T08:46:37.568Z,101342.88
2018-11-26T08:49:04.416Z,101343.16
2018-11-26T08:51:30.936Z,101346.09
2018-11-26T08:53:57.456Z,101344.50
2018-11-26T08:56:23.920Z,101350.45
2018-11-26T08:58:50.441Z,101350.69
2018-11-26T09:01:16.983Z,101345.85
2018-11-26T09:03:43.651Z,101353.69
2018-11-26T09:06:10.148Z,101351.56
2018-11-26T09:08:36.664Z,101359.37
2018-11-26T09:11:03.879Z,101351.50
2018-11-26T09:13:30.380Z,101358.80
2018-11-26T09:15:56.891Z,101356.09
2018-11-26T09:18:23.371Z,101359.37
2018-11-26T09:20:49.852Z,101350.16
2018-11-26T09:23:16.316Z,101350.16
2018-11-26T09:25:42.817Z,101343.94
2018-11-26T09:28:09.288Z,101343.94
2018-11-26T09:30:35.792Z,101346.39
2018-11-26T09:34:05.909Z,101342.09
2018-11-26T09:36:32.355Z,101340.45
2018-11-26T09:38:58.814Z,101337.17
2018-11-26T09:41:25.326Z,101350.98
2018-11-26T09:43:51.900Z,101345.85
2018-11-26T09:46:18.376Z,101352.61
2018-11-26T09:48:44.843Z,101352.05
2018-11-26T09:51:14.297Z,101353.39
2018-11-26T09:53:37.912Z,101347.16
2018-11-26T09:56:04.714Z,101348.50
2018-11-26T09:58:30.981Z,101344.16
2018-11-26T10:00:57.504Z,101341.75
2018-11-26T10:03:24.043Z,101343.91
2018-11-26T10:05:50.705Z,101337.70
2018-11-26T10:08:17.148Z,101333.39
2018-11-26T10:10:43.671Z,101339.28
2018-11-26T10:13:10.216Z,101333.34
2018-11-26T10:15:36.723Z,101329.83
2018-11-26T10:18:03.483Z,101328.47
2018-11-26T10:20:29.991Z,101329.05
2018-11-26T10:22:56.523Z,101333.09
2018-11-26T10:25:23.069Z,101330.12
2018-11-26T10:27:49.631Z,101328.77
2018-11-26T10:30:17.199Z,101324.71
2018-11-26T10:32:44.235Z,101323.93
2018-11-26T10:35:12.632Z,101324.98
2018-11-26T10:37:39.108Z,101318.77
2018-11-26T10:40:16.347Z,101317.95
2018-11-26T10:42:42.823Z,101315.25
2018-11-26T10:45:13.315Z,101319.30
2018-11-26T10:47:39.795Z,101315.82
2018-11-26T10:50:08.940Z,101314.71
2018-11-26T10:52:35.420Z,101308.25
2018-11-26T10:55:01.988Z,101309.84
2018-11-26T10:57:28.499Z,101315.52
2018-11-26T10:59:55.016Z,101308.20
2018-11-26T11:02:21.472Z,101310.36
2018-11-26T11:04:48.095Z,101313.05
2018-11-26T11:07:14.643Z,101310.36
2018-11-26T11:09:41.156Z,101310.34
2018-11-26T11:12:07.623Z,101313.88
2018-11-26T11:14:34.140Z,101305.77
2018-11-26T11:17:00.688Z,101309.53
2018-11-26T11:19:27.207Z,101313.58
2018-11-26T11:21:53.739Z,101305.47
2018-11-26T11:24:20.271Z,101309.28
2018-11-26T11:26:46.752Z,101313.58
2018-11-26T11:29:13.241Z,101314.12
2018-11-26T11:31:39.685Z,101312.23
2018-11-26T11:34:06.201Z,101314.69
2018-11-26T11:36:32.652Z,101312.23
2018-11-26T11:38:59.189Z,101311.39
2018-11-26T11:41:25.741Z,101301.17
2018-11-26T11:43:52.257Z,101306.82
2018-11-26T11:46:18.785Z,101301.41
2018-11-26T11:48:45.337Z,101301.66
2018-11-26T11:51:11.850Z,101303.82
2018-11-26T11:53:38.315Z,101307.34
2018-11-26T11:56:05.080Z,101298.95
2018-11-26T11:58:31.581Z,101306.23
2018-11-26T12:00:58.101Z,101297.60
2018-11-26T12:03:24.649Z,101304.36
2018-11-26T12:05:51.165Z,101305.98
2018-11-26T12:08:17.727Z,101302.47
2018-11-26T12:10:44.268Z,101297.06
2018-11-26T12:13:11.959Z,101298.12
2018-11-26T12:15:39.905Z,101300.58
2018-11-26T12:18:06.981Z,101305.17
2018-11-26T12:20:33.893Z,101302.72
2018-11-26T12:23:00.413Z,101301.36
2018-11-26T12:25:26.953Z,101302.98
2018-11-26T12:27:53.461Z,101306.77
2018-11-26T12:30:21.299Z,101301.93
2018-11-26T12:32:47.797Z,101304.87
2018-11-26T12:35:14.309Z,101307.28
2018-11-26T12:37:40.845Z,101304.87
2018-11-26T12:40:09.573Z,101308.94
2018-11-26T12:42:36.041Z,101305.41
2018-11-26T12:45:03.177Z,101307.58
2018-11-26T12:47:29.621Z,101298.66
2018-11-26T12:49:56.121Z,101303.01
2018-11-26T12:52:22.602Z,101303.52
2018-11-26T12:54:49.124Z,101303.52
2018-11-26T12:57:15.587Z,101303.58
2018-11-26T12:59:42.092Z,101316.80
2018-11-26T13:02:08.970Z,101312.98
2018-11-26T13:04:35.061Z,101315.98
2018-11-26T13:07:01.541Z,101316.23
2018-11-26T13:09:28.061Z,101319.80
2018-11-26T13:11:54.593Z,101320.05
2018-11-26T13:14:21.101Z,101318.98
2018-11-26T13:16:47.566Z,101318.70
2018-11-26T13:19:14.064Z,101314.39
2018-11-26T13:21:41.637Z,101315.98
2018-11-26T13:24:07.025Z,101315.98
2018-11-26T13:26:33.529Z,101318.70
2018-11-26T13:29:00.023Z,101318.70
2018-11-26T13:31:26.541Z,101317.88
2018-11-26T13:33:52.993Z,101317.64
2018-11-26T13:36:19.521Z,101317.64
2018-11-26T13:38:46.056Z,101319.80
2018-11-26T13:41:12.569Z,101318.75
2018-11-26T13:43:39.133Z,101324.16
2018-11-26T13:46:05.645Z,101317.93
2018-11-26T13:48:32.109Z,101317.39
2018-11-26T13:50:58.617Z,101321.98
2018-11-26T13:53:25.173Z,101323.05
2018-11-26T13:55:51.593Z,101323.34
2018-11-26T13:59:47.785Z,101324.69
2018-11-26T14:02:14.257Z,101318.23
2018-11-26T14:04:40.818Z,101322.53
2018-11-26T14:07:07.341Z,101322.28
2018-11-26T14:09:33.873Z,101323.06
2018-11-26T14:12:00.393Z,101327.94
2018-11-26T14:14:26.859Z,101333.09
2018-11-26T14:16:53.357Z,101331.75
2018-11-26T14:19:19.817Z,101330.69
2018-11-26T14:21:46.337Z,101336.88
2018-11-26T14:24:12.912Z,101334.17
2018-11-26T14:26:39.393Z,101328.77
2018-11-26T14:29:05.843Z,101334.98
2018-11-26T14:31:32.397Z,101334.47
2018-11-26T14:33:58.897Z,101338.23
2018-11-26T14:36:25.369Z,101340.16
2018-11-26T14:38:51.878Z,101344.75
2018-11-26T14:41:18.430Z,101343.16
2018-11-26T14:43:44.942Z,101344.50
2018-11-26T14:46:11.497Z,101343.16
2018-11-26T14:48:38.009Z,101349.91
2018-11-26T14:51:04.485Z,101354.75
2018-11-26T14:53:30.989Z,101357.75
2018-11-26T14:55:57.529Z,101353.69
2018-11-26T14:58:24.045Z,101351.80
2018-11-26T15:00:50.602Z,101346.93
2018-11-26T15:03:17.117Z,101348.56
2018-11-26T15:05:43.618Z,101356.67
2018-11-26T15:08:10.085Z,101352.34
2018-11-26T15:10:36.529Z,101356.39
2018-11-26T15:13:03.525Z,101356.39
2018-11-26T15:15:30.003Z,101359.37
2018-11-26T15:17:56.557Z,101356.67
2018-11-26T15:20:24.051Z,101362.08
2018-11-26T15:22:51.505Z,101362.61
2018-11-26T15:25:27.856Z,101364.27
2018-11-26T15:27:56.672Z,101370.48
2018-11-26T15:30:23.157Z,101368.85
2018-11-26T15:32:49.725Z,101372.61
2018-11-26T15:35:22.937Z,101374.53
2018-11-26T15:37:49.447Z,101372.08
2018-11-26T15:40:17.836Z,101373.97
2018-11-26T15:42:44.366Z,101382.08
2018-11-26T15:45:16.005Z,101384.00
2018-11-26T15:47:42.553Z,101384.23
2018-11-26T15:50:09.181Z,101386.41
2018-11-26T15:52:35.677Z,101384.78
2018-11-26T15:55:02.293Z,101385.05
2018-11-26T15:57:28.736Z,101385.23
2018-11-26T15:59:55.199Z,101391.52
2018-11-26T16:02:21.716Z,101387.76
2018-11-26T16:04:48.271Z,101385.30
2018-11-26T16:07:14.778Z,101389.35
2018-11-26T16:09:41.234Z,101389.35
2018-11-26T16:12:11.282Z,101389.64
2018-11-26T16:14:34.305Z,101390.46
2018-11-26T16:17:00.823Z,101391.98
2018-11-26T16:19:27.369Z,101390.72
2018-11-26T16:21:53.885Z,101385.70
2018-11-26T16:24:20.345Z,101387.77
2018-11-26T16:26:46.869Z,101387.61
2018-11-26T16:29:13.410Z,101386.94
2018-11-26T16:31:39.918Z,101390.64
2018-11-26T16:34:06.405Z,101386.42
2018-11-26T16:36:32.905Z,101391.75
2018-11-26T16:38:59.469Z,101398.94
2018-11-26T16:41:25.994Z,101400.45
2018-11-26T16:43:52.525Z,101399.25
2018-11-26T16:46:19.025Z,101393.75
2018-11-26T16:48:45.505Z,101397.42
2018-11-26T16:51:12.026Z,101403.31
2018-11-26T16:53:38.529Z,101411.92
2018-11-26T16:56:05.125Z,101408.55
2018-11-26T16:58:31.602Z,101412.28
2018-11-26T17:00:58.049Z,101411.41
2018-11-26T17:03:24.577Z,101415.44
2018-11-26T17:05:51.125Z,101414.62
2018-11-26T17:08:17.655Z,101413.14
2018-11-26T17:10:44.205Z,101406.55
2018-11-26T17:13:11.777Z,101407.90
2018-11-26T17:15:38.317Z,101417.59
2018-11-26T17:18:05.881Z,101426.53
2018-11-26T17:20:32.417Z,101431.34
2018-11-26T17:22:58.897Z,101433.21
2018-11-26T17:25:25.437Z,101433.72
2018-11-26T17:27:51.986Z,101432.57
2018-11-26T17:30:19.488Z,101440.87
2018-11-26T17:32:48.184Z,101444.94
2018-11-26T17:35:15.268Z,101440.03
2018-11-26T17:37:43.026Z,101447.31
2018-11-26T17:40:10.841Z,101442.41
2018-11-26T17:42:37.349Z,101445.35
2018-11-26T17:45:05.543Z,101446.91
2018-11-26T17:47:32.057Z,101449.32
2018-11-26T17:49:58.561Z,101450.77
2018-11-26T17:52:25.025Z,101448.70
2018-11-26T17:54:51.533Z,101447.11
2018-11-26T17:57:17.994Z,101446.06
2018-11-26T17:59:44.533Z,101437.69
2018-11-26T18:02:11.032Z,101440.94
2018-11-26T18:04:37.485Z,101437.17
2018-11-26T18:07:04.060Z,101448.02
2018-11-26T18:09:30.573Z,101446.39
2018-11-26T18:11:57.085Z,101449.98
2018-11-26T18:14:23.633Z,101453.77
2018-11-26T18:16:50.147Z,101455.13
2018-11-26T18:19:16.709Z,101460.82
2018-11-26T18:21:43.217Z,101460.91
2018-11-26T18:24:09.785Z,101469.83
2018-11-26T18:26:36.296Z,101476.66
2018-11-26T18:29:02.853Z,101469.13
2018-11-26T18:31:29.349Z,101469.47
2018-11-26T18:33:55.927Z,101481.45
2018-11-26T18:36:22.429Z,101478.56
2018-11-26T18:38:48.957Z,101478.86
2018-11-26T18:41:15.417Z,101484.00
2018-11-26T18:43:41.957Z,101488.91
2018-11-26T18:46:08.489Z,101485.80
2018-11-26T18:48:34.997Z,101490.41
2018-11-26T18:51:01.455Z,101494.23
2018-11-26T18:53:27.969Z,101495.07
2018-11-26T18:55:54.529Z,101494.86
2018-11-26T18:58:21.034Z,101499.52
2018-11-26T19:00:52.237Z,101502.48
2018-11-26T19:03:18.865Z,101505.50
2018-11-26T19:05:46.133Z,101507.50
2018-11-26T19:08:12.741Z,101506.42
2018-11-26T19:10:39.265Z,101513.52
2018-11-26T19:13:07.877Z,101508.45
2018-11-26T19:15:36.157Z,101510.10
2018-11-26T19:18:09.137Z,101518.01
2018-11-26T19:20:35.665Z,101510.48
2018-11-26T19:23:02.153Z,101510.77
2018-11-26T19:25:28.622Z,101508.14
2018-11-26T19:27:55.121Z,101514.40
2018-11-26T19:30:23.213Z,101510.93
2018-11-26T19:32:48.113Z,101513.12
2018-11-26T19:35:14.757Z,101511.52
2018-11-26T19:37:41.312Z,101512.13
2018-11-26T19:40:11.133Z,101509.95
2018-11-26T19:42:37.670Z,101500.53
2018-11-26T19:45:07.993Z,101508.67
2018-11-26T19:47:34.496Z,101508.19
2018-11-26T19:50:02.447Z,101507.91
2018-11-26T19:52:27.561Z,101502.55
2018-11-26T19:54:54.065Z,101510.16
2018-11-26T19:57:20.542Z,101511.27
2018-11-26T19:59:47.045Z,101519.65
2018-11-26T20:02:13.572Z,101525.36
2018-11-26T20:04:46.986Z,101527.58
2018-11-26T20:07:13.505Z,101522.99
2018-11-26T20:09:39.953Z,101524.64
2018-11-26T20:12:06.478Z,101521.36
2018-11-26T20:14:33.033Z,101524.66
2018-11-26T20:16:59.555Z,101520.11
2018-11-26T20:19:26.102Z,101529.83
2018-11-26T20:21:52.621Z,101534.20
2018-11-26T20:24:19.173Z,101538.02
2018-11-26T20:26:45.673Z,101533.70
2018-11-26T20:29:12.141Z,101530.48
2018-11-26T20:31:38.649Z,101534.55
2018-11-26T20:34:05.270Z,101538.62
2018-11-26T20:36:31.726Z,101550.80
2018-11-26T20:38:58.273Z,101550.55
2018-11-26T20:41:24.791Z,101549.24
2018-11-26T20:43:51.365Z,101548.67
2018-11-26T20:46:17.866Z,101554.38
2018-11-26T20:48:44.405Z,101559.79
2018-11-26T20:51:10.954Z,101563.84
2018-11-26T20:53:38.021Z,101567.66
2018-11-26T20:56:09.497Z,101567.13
2018-11-26T20:58:35.956Z,101575.25
2018-11-26T21:01:02.449Z,101570.38
2018-11-26T21:03:28.970Z,101565.83
2018-11-26T21:05:55.541Z,101569.89
2018-11-26T21:08:22.042Z,101571.78
2018-11-26T21:10:48.605Z,101571.53
2018-11-26T21:13:17.012Z,101571.25
2018-11-26T21:15:41.686Z,101581.80
2018-11-26T21:18:10.241Z,101581.52
2018-11-26T21:20:47.083Z,101582.37
2018-11-26T21:23:17.970Z,101581.02
2018-11-26T21:25:44.522Z,101584.02
2018-11-26T21:28:11.017Z,101589.97
2018-11-26T21:30:37.569Z,101585.63
2018-11-26T21:33:04.321Z,101591.61
2018-11-26T21:35:30.846Z,101597.02
2018-11-26T21:37:57.340Z,101593.55
2018-11-26T21:40:24.165Z,101595.44
2018-11-26T21:42:50.888Z,101597.89
2018-11-26T21:45:23.961Z,101605.19
2018-11-26T21:47:50.469Z,101598.97
2018-11-26T21:50:17.017Z,101601.14
2018-11-26T21:52:43.797Z,101596.03
2018-11-26T21:55:12.432Z,101600.66
2018-11-26T21:57:38.986Z,101604.43
2018-11-26T22:00:23.525Z,101612.55
2018-11-26T22:02:50.294Z,101611.48
2018-11-26T22:05:16.793Z,101620.41
2018-11-26T22:07:43.345Z,101620.41
2018-11-26T22:10:11.215Z,101621.23
2018-11-26T22:12:37.860Z,101630.70
2018-11-26T22:15:05.929Z,101630.16
2018-11-26T22:17:32.465Z,101629.09
2018-11-26T22:19:58.958Z,101620.70
2018-11-26T22:22:25.532Z,101624.52
2018-11-26T22:24:52.430Z,101619.64
2018-11-26T22:27:18.565Z,101625.63
2018-11-26T22:29:45.128Z,101621.56
2018-11-26T22:32:11.629Z,101620.21
2018-11-26T22:34:38.197Z,101624.27
2018-11-26T22:37:04.938Z,101621.56
2018-11-26T22:39:31.465Z,101620.46
2018-11-26T22:41:57.942Z,101621.56
2018-11-26T22:44:24.502Z,101618.05
2018-11-26T22:46:51.018Z,101623.98
2018-11-26T22:49:17.573Z,101625.63
2018-11-26T22:51:44.085Z,101622.64
2018-11-26T22:54:10.539Z,101631.03
2018-11-26T22:56:37.053Z,101629.40
2018-11-26T22:59:03.804Z,101630.50
2018-11-26T23:01:30.329Z,101633.73
2018-11-26T23:03:56.761Z,101635.62
2018-11-26T23:06:23.217Z,101633.45
2018-11-26T23:08:49.729Z,101641.03
2018-11-26T23:11:16.285Z,101638.05
2018-11-26T23:13:42.793Z,101636.45
2018-11-26T23:16:09.265Z,101640.21
2018-11-26T23:18:35.805Z,101639.97
2018-11-26T23:27:48.770Z,101643.49
2018-11-26T23:30:19.342Z,101651.06
2018-11-26T23:32:50.029Z,101650.25
2018-11-26T23:35:16.533Z,101649.44
2018-11-26T23:37:43.118Z,101661.31
2018-11-26T23:40:10.601Z,101652.95
2018-11-26T23:42:37.092Z,101655.13
2018-11-26T23:45:05.989Z,101655.41
2018-11-26T23:47:32.497Z,101651.89
2018-11-26T23:49:59.013Z,101655.41
2018-11-26T23:52:25.472Z,101650.30
2018-11-26T23:54:51.973Z,101652.42
2018-11-26T23:57:18.441Z,101646.77
2018-11-26T23:59:44.944Z,101642.18
